• Join FlightAware (Why Join?)
  • Login
  • US Flag 
04:32PM EDT


 

Airport Tracker/Info


-or-


 

Live Flight TrackerFlight Track Log ✈ TSU361 ✈ 07-Jul-2013 ✈ KDKB - KELP

Flight Track Log - Related Links

Times and Time Zones

All times are in EDT time to prevent confusion due to time zone crossing. See the TSU361 flight status page for this flight to view local times or setup timezone preferences in your user account.

Time Position Orientation Groundspeed Altitude Reporting Facility
EDT Latitude Longitude Course Direction KTS MPH feet Rate Location/Type
01:17AM 41.9039 -88.7214 260° West 159 183 2,300  Level Chicago Center
01:18AM 41.8956 -88.7844 260° West 178 205 4,400 1,980 Climbing Chicago Center
01:19AM 41.8894 -88.8547 263° West 191 220 6,300 1,680 Climbing Chicago Center
01:20AM 41.8839 -88.9303 264° West 203 234 7,800 1,620 Climbing Chicago Center
01:21AM 41.8761 -89.0300 264° West 222 255 9,600 1,560 Climbing Chicago Center
01:22AM 41.8700 -89.1169 265° West 232 267 11,000 1,380 Climbing Chicago Center
01:23AM 41.8542 -89.2028 256° West 257 296 12,500 1,440 Climbing Chicago Center
01:24AM 41.8172 -89.2778 237° Southwest 249 287 13,900 1,380 Climbing Chicago Center
01:25AM 41.7814 -89.3522 237° Southwest 242 278 15,300 1,320 Climbing Chicago Center
01:26AM 41.7433 -89.4283 236° Southwest 247 284 16,600 1,200 Climbing Chicago Center
01:27AM 41.7053 -89.5072 237° Southwest 252 290 17,700 960 Climbing Chicago Center
01:28AM 41.6656 -89.5925 238° Southwest 264 304 18,600 900 Climbing Chicago Center
01:29AM 41.6244 -89.6781 237° Southwest 273 314 19,600 960 Climbing Chicago Center
01:30AM 41.5828 -89.7644 237° Southwest 276 318 20,600 900 Climbing Chicago Center
01:31AM 41.5428 -89.8494 238° Southwest 273 314 21,500 900 Climbing Chicago Center
01:32AM 41.5039 -89.9314 238° Southwest 264 304 22,500 960 Climbing Chicago Center
01:33AM 41.4658 -90.0119 238° Southwest 258 297 23,500 720 Climbing Chicago Center
01:34AM 41.4258 -90.0928 237° Southwest 261 300 24,000 240 Climbing Chicago Center
01:35AM 41.3792 -90.1803 235° Southwest 285 328 24,000  Level Chicago Center
01:36AM 41.3303 -90.2769 236° Southwest 310 357 24,000  Level Chicago Center
01:37AM 41.2806 -90.3794 237° Southwest 327 376 24,000  Level Chicago Center
01:38AM 41.2297 -90.4883 238° Southwest 345 397 24,000  Level Chicago Center
01:39AM 41.1847 -90.5928 240° Southwest 331 381 24,000  Level Chicago Center
01:40AM 41.1400 -90.6964 240° Southwest 327 376 24,000  Level Chicago Center
01:41AM 41.0942 -90.7989 239° Southwest 325 374 24,000  Level Chicago Center
01:42AM 41.0478 -90.9006 239° Southwest 323 372 24,000  Level Chicago Center
01:43AM 41.0022 -91.0031 240° Southwest 323 372 24,000  Level Chicago Center
01:44AM 40.9569 -91.1061 240° Southwest 325 374 24,000  Level Chicago Center
01:45AM 40.9100 -91.2069 238° Southwest 322 371 24,000  Level Chicago Center
01:46AM 40.8636 -91.3106 239° Southwest 320 368 24,000  Level Chicago Center
01:47AM 40.8181 -91.4108 239° Southwest 321 369 24,000  Level Chicago Center
01:48AM 40.7719 -91.5117 239° Southwest 324 373 24,000  Level Chicago Center
01:49AM 40.7256 -91.6131 239° Southwest 326 375 24,000  Level Chicago Center
01:50AM 40.6792 -91.7139 239° Southwest 326 375 24,000  Level Chicago Center
01:51AM 40.6328 -91.8158 239° Southwest 327 376 24,000  Level Chicago Center
01:52AM 40.5853 -91.9175 238° Southwest 329 379 24,000  Level Chicago Center
01:53AM 40.5383 -92.0186 239° Southwest 327 376 24,000  Level Chicago Center
01:54AM 40.4914 -92.1203 239° Southwest 328 377 24,000  Level Chicago Center
01:55AM 40.4447 -92.2233 239° Southwest 329 379 24,000  Level Kansas City Center
01:56AM 40.3983 -92.3239 239° Southwest 326 375 24,000  Level Kansas City Center
01:57AM 40.3508 -92.4286 239° Southwest 323 372 24,000  Level Kansas City Center
01:58AM 40.3061 -92.5264 239° Southwest 321 369 24,000  Level Kansas City Center
01:59AM 40.2642 -92.6222 240° Southwest 318 366 24,000  Level Kansas City Center
02:00AM 40.2200 -92.7161 238° Southwest 317 365 24,000  Level Kansas City Center
02:01AM 40.1700 -92.8261 239° Southwest 315 362 24,000  Level Kansas City Center
02:02AM 40.1275 -92.9197 239° Southwest 313 360 24,000  Level Kansas City Center
02:03AM 40.0819 -93.0100 237° Southwest 312 359 24,000  Level Kansas City Center
02:04AM 40.0300 -93.1117 236° Southwest 315 362 24,000  Level Kansas City Center
02:05AM 39.9808 -93.2075 236° Southwest 315 362 24,000  Level Kansas City Center
02:06AM 39.9347 -93.3014 237° Southwest 316 364 24,000  Level Kansas City Center
02:07AM 39.8872 -93.3964 237° Southwest 315 362 24,000  Level Kansas City Center
02:08AM 39.8394 -93.4911 237° Southwest 316 364 24,000  Level Kansas City Center
02:09AM 39.7917 -93.5867 237° Southwest 317 365 24,000  Level Kansas City Center
02:10AM 39.7447 -93.6822 237° Southwest 317 365 24,000  Level Kansas City Center
02:11AM 39.7008 -93.7753 239° Southwest 314 361 24,000  Level Kansas City Center
02:12AM 39.6492 -93.8842 238° Southwest 316 364 24,000  Level Kansas City Center
02:13AM 39.6047 -93.9753 238° Southwest 314 361 24,000  Level Kansas City Center
02:14AM 39.5606 -94.0672 238° Southwest 313 360 24,000  Level Kansas City Center
02:15AM 39.5175 -94.1594 239° Southwest 313 360 24,000  Level Kansas City Center
02:16AM 39.4667 -94.2656 238° Southwest 312 359 24,000  Level Kansas City Center
02:17AM 39.4244 -94.3581 239° Southwest 311 358 24,000  Level Kansas City Center
02:18AM 39.3811 -94.4486 238° Southwest 310 357 24,000  Level Kansas City Center
02:19AM 39.3358 -94.5367 236° Southwest 307 353 24,000  Level Kansas City Center
02:20AM 39.2828 -94.6381 236° Southwest 305 351 24,000  Level Kansas City Center
02:21AM 39.2375 -94.7256 236° Southwest 306 352 24,000  Level Kansas City Center
02:22AM 39.1917 -94.8100 235° Southwest 300 345 24,000  Level Kansas City Center
02:23AM 39.1450 -94.8908 233° Southwest 293 337 24,000  Level Kansas City Center
02:24AM 39.0872 -94.9906 233° Southwest 307 353 24,000  Level Kansas City Center
02:25AM 39.0372 -95.0756 233° Southwest 308 354 24,000  Level Kansas City Center
02:26AM 38.9878 -95.1628 234° Southwest 313 360 24,000  Level Kansas City Center
02:27AM 38.9383 -95.2506 234° Southwest 314 361 24,000  Level Kansas City Center
02:28AM 38.8842 -95.3550 236° Southwest 311 358 24,000  Level Kansas City Center
02:29AM 38.8458 -95.4511 243° Southwest 314 361 24,000  Level Kansas City Center
02:30AM 38.8022 -95.5628 243° Southwest 312 359 24,000  Level Kansas City Center
02:31AM 38.7700 -95.6606 247° West 311 358 24,000  Level Kansas City Center
02:32AM 38.7358 -95.7592 246° West 314 361 24,000  Level Kansas City Center
02:33AM 38.7017 -95.8569 246° West 314 361 24,000  Level Kansas City Center
02:34AM 38.6667 -95.9728 249° West 312 359 24,000  Level Kansas City Center
02:35AM 38.6369 -96.0731 249° West 313 360 24,000  Level Kansas City Center
02:36AM 38.6131 -96.1742 253° West 311 358 24,000  Level Kansas City Center
02:37AM 38.5869 -96.2744 252° West 312 359 24,000  Level Kansas City Center
02:38AM 38.5564 -96.3914 252° West 309 356 24,000  Level Kansas City Center
02:39AM 38.5306 -96.4922 252° West 311 358 24,000  Level Kansas City Center
02:40AM 38.5042 -96.5917 251° West 309 356 24,000  Level Kansas City Center
02:41AM 38.4794 -96.6911 252° West 307 353 24,000  Level Kansas City Center
02:42AM 38.4500 -96.8108 253° West 308 354 24,000  Level Kansas City Center
02:43AM 38.4292 -96.8967 253° West 312 359 24,000  Level Kansas City Center
02:44AM 38.4053 -97.0019 254° West 310 357 24,000  Level Kansas City Center
02:45AM 38.3981 -97.1097 265° West 306 352 24,000  Level Kansas City Center
02:46AM 38.3903 -97.2183 265° West 308 354 24,000  Level Kansas City Center
02:47AM 38.3822 -97.3256 265° West 306 352 24,000  Level Kansas City Center
02:48AM 38.3544 -97.4292 251° West 313 360 24,000  Level Kansas City Center
02:49AM 38.3208 -97.5294 247° West 310 357 24,000  Level Kansas City Center
02:50AM 38.2489 -97.6242 226° Southwest 315 362 24,000  Level Kansas City Center
02:51AM 38.1853 -97.6983 223° Southwest 312 359 24,000  Level Kansas City Center
02:52AM 38.1200 -97.7733 222° Southwest 316 364 24,000  Level Kansas City Center
02:53AM 38.0575 -97.8464 223° Southwest 316 364 24,000  Level Kansas City Center
02:54AM 37.9933 -97.9228 223° Southwest 317 365 24,000  Level Kansas City Center
02:55AM 37.9289 -98.0028 224° Southwest 323 372 24,000  Level Kansas City Center
02:56AM 37.8633 -98.0767 222° Southwest 319 367 24,000  Level Kansas City Center
02:57AM 37.7956 -98.1550 222° Southwest 314 361 24,000  Level Kansas City Center
02:58AM 37.7325 -98.2142 217° Southwest 318 366 24,000  Level Kansas City Center
02:59AM 37.6581 -98.2742 213° Southwest 318 366 24,000  Level Kansas City Center
03:00AM 37.5833 -98.3364 213° Southwest 323 372 24,000  Level Kansas City Center
03:01AM 37.5094 -98.3975 213° Southwest 322 371 24,000  Level Kansas City Center
03:02AM 37.4350 -98.4589 213° Southwest 319 367 24,000  Level Kansas City Center
03:03AM 37.3617 -98.5217 214° Southwest 320 368 24,000  Level Kansas City Center
03:04AM 37.2872 -98.5808 212° Southwest 317 365 24,000  Level Kansas City Center
03:05AM 37.2147 -98.6414 214° Southwest 315 362 24,000  Level Kansas City Center
03:06AM 37.1417 -98.7031 214° Southwest 315 362 24,000  Level Kansas City Center
03:07AM 37.0625 -98.7661 212° Southwest 312 359 24,000  Level Kansas City Center
03:08AM 36.9886 -98.8264 213° Southwest 315 362 24,000  Level Kansas City Center
03:09AM 36.9147 -98.8839 212° Southwest 313 360 24,000  Level Kansas City Center
03:10AM 36.8428 -98.9436 214° Southwest 311 358 24,000  Level Kansas City Center
03:11AM 36.7686 -99.0022 212° Southwest 314 361 24,000  Level Kansas City Center
03:12AM 36.6969 -99.0628 214° Southwest 311 358 24,000  Level Kansas City Center
03:13AM 36.6408 -99.1403 228° Southwest 305 351 24,000  Level Kansas City Center
03:14AM 36.5906 -99.2294 235° Southwest 310 357 24,000  Level Kansas City Center
03:15AM 36.5403 -99.3150 234° Southwest 309 356 24,000  Level Kansas City Center
03:16AM 36.4925 -99.4031 236° Southwest 308 354 24,000  Level Kansas City Center
03:17AM 36.4431 -99.4911 235° Southwest 310 357 24,000  Level Kansas City Center
03:18AM 36.3956 -99.5772 236° Southwest 306 352 24,000  Level Kansas City Center
03:19AM 36.3478 -99.6647 236° Southwest 307 353 24,000  Level Kansas City Center
03:20AM 36.2997 -99.7514 235° Southwest 305 351 24,000  Level Kansas City Center
03:21AM 36.2503 -99.8378 235° Southwest 307 353 24,000  Level Kansas City Center
03:22AM 36.2006 -99.9233 234° Southwest 306 352 24,000  Level Kansas City Center
03:23AM 36.1508 -100.0083 234° Southwest 306 352 24,000  Level Kansas City Center
03:24AM 36.1019 -100.0925 234° Southwest 302 348 24,000  Level Kansas City Center
03:25AM 36.0517 -100.1772 234° Southwest 304 350 24,000  Level Kansas City Center
03:26AM 36.0033 -100.2622 235° Southwest 303 349 24,000  Level Kansas City Center
03:27AM 35.9533 -100.3450 233° Southwest 301 346 24,000  Level Kansas City Center
03:28AM 35.9011 -100.4306 233° Southwest 305 351 24,000  Level Kansas City Center
03:29AM 35.8508 -100.5114 233° Southwest 303 349 24,000  Level Albuquerque Center
03:30AM 35.8008 -100.5933 233° Southwest 300 345 24,000  Level Albuquerque Center
03:31AM 35.7514 -100.6756 233° Southwest 299 344 24,000  Level Albuquerque Center
03:32AM 35.6997 -100.7594 233° Southwest 301 346 24,000  Level Albuquerque Center
03:33AM 35.6503 -100.8397 233° Southwest 299 344 24,000  Level Albuquerque Center
03:34AM 35.5986 -100.9211 232° Southwest 300 345 24,000  Level Albuquerque Center
03:35AM 35.5369 -101.0200 233° Southwest 302 348 24,000  Level Albuquerque Center
03:36AM 35.4864 -101.1003 232° Southwest 301 346 24,000  Level Albuquerque Center
03:37AM 35.4306 -101.1764 228° Southwest 300 345 24,000  Level Albuquerque Center
03:38AM 35.3683 -101.2442 222° Southwest 299 344 24,000  Level Albuquerque Center
03:39AM 35.3064 -101.3142 223° Southwest 300 345 24,000  Level Albuquerque Center
03:40AM 35.2444 -101.3842 223° Southwest 301 346 24,000  Level Albuquerque Center
03:41AM 35.1831 -101.4542 223° Southwest 300 345 24,000  Level Albuquerque Center
03:42AM 35.1342 -101.5131 225° Southwest 301 346 24,000  Level Albuquerque Center
03:43AM 35.0742 -101.5878 226° Southwest 303 349 24,000  Level Albuquerque Center
03:44AM 35.0167 -101.6633 227° Southwest 301 346 24,000  Level Albuquerque Center
03:45AM 34.9597 -101.7408 228° Southwest 305 351 24,000  Level Albuquerque Center
03:46AM 34.9244 -101.8094 238° Southwest 300 345 24,000  Level Albuquerque Center
03:47AM 34.8789 -101.8950 237° Southwest 299 344 24,000  Level Albuquerque Center
03:48AM 34.8347 -101.9833 239° Southwest 301 346 24,000  Level Albuquerque Center
03:49AM 34.7908 -102.0719 239° Southwest 305 351 24,000  Level Albuquerque Center
03:50AM 34.7475 -102.1611 239° Southwest 305 351 24,000  Level Albuquerque Center
03:51AM 34.7069 -102.2519 242° Southwest 306 352 24,000  Level Albuquerque Center
03:52AM 34.6775 -102.3497 250° West 307 353 24,000  Level Albuquerque Center
03:53AM 34.6489 -102.4464 250° West 306 352 24,000  Level Albuquerque Center
03:54AM 34.6150 -102.5589 250° West 298 343 24,000  Level Albuquerque Center
03:55AM 34.5611 -102.6306 228° Southwest 295 339 24,000  Level Albuquerque Center
03:56AM 34.5108 -102.6953 227° Southwest 293 337 24,000  Level Albuquerque Center
03:57AM 34.4439 -102.7758 225° Southwest 302 348 24,000  Level Albuquerque Center
03:58AM 34.3822 -102.8497 225° Southwest 309 356 24,000  Level Albuquerque Center
03:59AM 34.3200 -102.9231 224° Southwest 312 359 24,000  Level Albuquerque Center
04:00AM 34.2592 -102.9997 226° Southwest 315 362 24,000  Level Albuquerque Center
04:01AM 34.2081 -103.0606 225° Southwest 313 360 24,000  Level Albuquerque Center
04:02AM 34.1478 -103.1347 226° Southwest 312 359 24,000  Level Albuquerque Center
04:03AM 34.0897 -103.2092 227° Southwest 307 353 24,000  Level Albuquerque Center
04:04AM 34.0317 -103.2819 226° Southwest 305 351 24,000  Level Albuquerque Center
04:05AM 33.9625 -103.3700 227° Southwest 303 349 24,000  Level Albuquerque Center
04:06AM 33.9042 -103.4431 226° Southwest 304 350 24,000  Level Albuquerque Center
04:07AM 33.8469 -103.5164 227° Southwest 303 349 24,000  Level Albuquerque Center
04:08AM 33.7892 -103.5883 226° Southwest 301 346 24,000  Level Albuquerque Center
04:09AM 33.7311 -103.6611 226° Southwest 301 346 24,000  Level Albuquerque Center
04:11AM 41.0500 -90.9167 50° Northeast 321 369 24,000  Level Chicago TRACON
04:12AM 41.0500 -90.9167 90° East 321 369 24,000  Level Chicago TRACON
04:13AM 41.0500 -90.9167 90° East 321 369 24,000  Level Chicago TRACON
04:14AM 41.0500 -90.9167 90° East 321 369 24,000  Level Chicago TRACON
04:15AM 33.3817 -104.0994 238° Southwest 299 344 24,000  Level Albuquerque Center
04:16AM 33.3219 -104.1694 224° Southwest 300 345 24,000  Level Albuquerque Center
04:17AM 33.2622 -104.2378 224° Southwest 298 343 24,000  Level Albuquerque Center
04:18AM 33.2022 -104.3050 223° Southwest 296 341 24,000  Level Albuquerque Center
04:19AM 33.1442 -104.3733 225° Southwest 292 336 24,000  Level Albuquerque Center
04:20AM 33.0864 -104.4406 224° Southwest 290 334 24,000  Level Albuquerque Center
04:21AM 33.0283 -104.5072 224° Southwest 289 333 24,000  Level Albuquerque Center
04:22AM 32.9711 -104.5739 224° Southwest 288 331 24,000  Level Albuquerque Center
04:23AM 32.9108 -104.6431 224° Southwest 298 343 24,000  Level Albuquerque Center
04:24AM 32.8486 -104.7142 224° Southwest 308 354 24,000  Level Albuquerque Center
04:25AM 32.7867 -104.7856 224° Southwest 310 357 24,000  Level Albuquerque Center
04:26AM 32.7239 -104.8586 224° Southwest 315 362 24,000  Level Albuquerque Center
04:27AM 32.6600 -104.9300 223° Southwest 317 365 24,000  Level Albuquerque Center
04:28AM 32.6069 -104.9956 226° Southwest 321 369 24,000  Level Albuquerque Center
04:29AM 32.5433 -105.0664 223° Southwest 316 364 24,000 -360 Level Albuquerque Center
04:30AM 32.4794 -105.1392 224° Southwest 318 366 23,300 -1,020 Descending Albuquerque Center
04:31AM 32.4175 -105.2075 223° Southwest 313 360 22,000 -1,260 Descending Albuquerque Center
04:32AM 32.3581 -105.2789 225° Southwest 307 353 20,800 -1,200 Descending Albuquerque Center
04:33AM 32.3019 -105.3486 226° Southwest 300 345 19,700 -1,200 Descending Albuquerque Center
04:34AM 32.2458 -105.4172 226° Southwest 296 341 18,400 -1,320 Descending Albuquerque Center
04:35AM 32.1894 -105.4858 226° Southwest 294 338 17,100 -1,320 Descending Albuquerque Center
04:36AM 32.1303 -105.5542 224° Southwest 298 343 15,800 -1,320 Descending Albuquerque Center
04:37AM 32.0717 -105.6225 225° Southwest 298 343 14,500 -1,380 Descending Albuquerque Center
04:38AM 32.0117 -105.6900 224° Southwest 299 344 13,100 -1,320 Descending Albuquerque Center
04:39AM 31.9603 -105.7686 232° Southwest 310 357 11,900 -1,380 Descending Albuquerque Center
04:40AM 31.9308 -105.8575 249° West 294 338 10,400 -1,440 Descending Albuquerque Center
04:41AM 31.9061 -105.9436 251° West 275 316 9,100 -720 Descending Albuquerque Center
04:42AM 31.8842 -106.0244 252° West 218 251 9,000 -900 Descending Albuquerque Center
04:43AM 31.8675 -106.0883 253° West 208 239 7,400 -1,020 Descending Albuquerque Center
04:44AM 31.8483 -106.1556 251° West 215 247 7,000 -600 Descending Albuquerque Center
04:45AM 31.8831 -106.1972 314° West 190 219 6,300 -540 Descending Albuquerque Center
04:46AM 31.9075 -106.2331 309° West 181 208 6,000 -240 Descending Albuquerque Center
04:47AM 31.8808 -106.2894 241° Southwest 173 199 5,900 -600 Descending Albuquerque Center
04:48AM 31.8539 -106.3256 229° Southwest 150 173 4,900 -840 Descending Albuquerque Center
04:49AM 31.8319 -106.3558 230° Southwest 126 145 4,300 -480 Descending Albuquerque Center
04:50AM 31.8122 -106.3836 230° Southwest 117 135 4,000 -300 Descending Albuquerque Center